createdAt,value
2022-11-27T00:00:04.300Z,26.90
2022-11-27T00:01:16.505Z,27.60
2022-11-27T00:02:17.823Z,27.13
2022-11-27T00:03:19.278Z,27.20
2022-11-27T00:04:20.672Z,31.27
2022-11-27T00:05:22.028Z,33.23
2022-11-27T00:06:24.358Z,28.13
2022-11-27T00:07:25.873Z,32.53
2022-11-27T00:08:27.268Z,33.77
2022-11-27T00:09:28.656Z,29.43
2022-11-27T00:10:29.939Z,29.57
2022-11-27T00:11:32.179Z,34.53
2022-11-27T00:12:33.508Z,31.47
2022-11-27T00:13:34.896Z,32.70
2022-11-27T00:14:36.186Z,31.07
2022-11-27T00:15:37.608Z,32.63
2022-11-27T00:16:38.997Z,30.53
2022-11-27T00:17:40.294Z,30.67
2022-11-27T00:18:41.896Z,23.73
2022-11-27T00:19:43.270Z,30.93
2022-11-27T00:20:44.613Z,31.60
2022-11-27T00:21:45.901Z,30.03
2022-11-27T00:22:47.267Z,30.30
2022-11-27T00:23:48.804Z,33.47
2022-11-27T00:24:50.140Z,29.83
2022-11-27T00:25:54.155Z,31.70
2022-11-27T00:26:55.447Z,31.20
2022-11-27T00:27:56.850Z,30.83
2022-11-27T00:28:58.313Z,32.87
2022-11-27T00:29:59.624Z,30.43
2022-11-27T00:31:01.881Z,30.33
2022-11-27T00:32:03.572Z,33.03
2022-11-27T00:33:04.997Z,30.23
2022-11-27T00:34:07.610Z,32.00
2022-11-27T00:35:09.228Z,29.43
2022-11-27T00:36:11.759Z,26.73
2022-11-27T00:37:14.734Z,31.07
2022-11-27T00:38:16.024Z,27.17
2022-11-27T00:39:17.477Z,28.40
2022-11-27T00:40:18.883Z,27.93
2022-11-27T00:41:21.677Z,26.33
2022-11-27T00:42:23.066Z,25.37
2022-11-27T00:43:24.476Z,25.40
2022-11-27T00:44:25.785Z,27.60
2022-11-27T00:45:27.476Z,25.77
2022-11-27T00:46:30.277Z,25.70
2022-11-27T00:47:31.656Z,27.87
2022-11-27T00:48:33.612Z,30.37
2022-11-27T00:49:34.959Z,28.37
2022-11-27T00:50:36.723Z,22.80
2022-11-27T00:51:38.051Z,26.90
2022-11-27T00:52:39.450Z,29.17
2022-11-27T00:53:40.966Z,27.23
2022-11-27T00:54:42.417Z,25.40
2022-11-27T00:55:45.736Z,25.40
2022-11-27T00:56:47.035Z,25.53
2022-11-27T00:57:48.322Z,26.33
2022-11-27T00:58:50.105Z,26.27
2022-11-27T00:59:51.447Z,23.07
2022-11-27T01:00:59.719Z,22.53
2022-11-27T01:02:01.110Z,28.77
2022-11-27T01:03:02.660Z,23.77
2022-11-27T01:04:05.007Z,21.37
2022-11-27T01:05:06.677Z,24.73
2022-11-27T01:06:08.076Z,20.30
2022-11-27T01:07:09.537Z,22.03
2022-11-27T01:08:10.967Z,19.57
2022-11-27T01:09:14.921Z,25.97
2022-11-27T01:10:16.290Z,21.80
2022-11-27T01:11:19.429Z,21.93
2022-11-27T01:12:20.723Z,24.43
2022-11-27T01:13:26.115Z,22.03
2022-11-27T01:14:27.436Z,22.60
2022-11-27T01:15:28.859Z,23.03
2022-11-27T01:16:31.218Z,23.93
2022-11-27T01:17:32.594Z,22.07
2022-11-27T01:18:34.504Z,21.10
2022-11-27T01:19:37.074Z,23.30
2022-11-27T01:20:39.872Z,21.03
2022-11-27T01:21:41.496Z,21.17
2022-11-27T01:22:42.816Z,21.47
2022-11-27T01:23:44.429Z,22.17
2022-11-27T01:24:46.199Z,23.17
2022-11-27T01:25:48.270Z,23.50
2022-11-27T01:26:49.575Z,22.40
2022-11-27T01:27:50.890Z,23.13
2022-11-27T01:28:53.409Z,19.47
2022-11-27T01:29:54.813Z,21.83
2022-11-27T01:30:56.330Z,21.70
2022-11-27T01:31:57.717Z,24.07
2022-11-27T01:32:59.007Z,22.80
2022-11-27T01:34:01.641Z,20.67
2022-11-27T01:35:03.098Z,19.13
2022-11-27T01:36:05.654Z,19.93
2022-11-27T01:37:06.974Z,21.73
2022-11-27T01:38:08.639Z,22.10
2022-11-27T01:39:14.119Z,22.53
2022-11-27T01:40:15.480Z,25.07
2022-11-27T01:41:18.767Z,21.97
2022-11-27T01:42:20.089Z,24.13
2022-11-27T01:43:36.330Z,20.90
2022-11-27T01:44:37.968Z,24.77
2022-11-27T01:45:39.724Z,21.50
2022-11-27T01:46:46.256Z,22.00
2022-11-27T01:47:52.615Z,22.07
2022-11-27T01:48:55.782Z,20.83
2022-11-27T01:50:03.032Z,21.00
2022-11-27T01:51:04.459Z,21.23
2022-11-27T01:52:15.176Z,20.87
2022-11-27T01:53:18.028Z,23.33
2022-11-27T01:54:20.812Z,23.77
2022-11-27T01:55:31.362Z,19.93
2022-11-27T01:56:32.724Z,21.70
2022-11-27T01:57:38.705Z,22.30
2022-11-27T01:58:40.443Z,19.70
2022-11-27T01:59:42.012Z,20.90
2022-11-27T02:00:43.453Z,22.63
2022-11-27T02:01:44.833Z,25.73
2022-11-27T02:02:46.692Z,20.27
2022-11-27T02:03:48.060Z,21.80
2022-11-27T02:04:49.395Z,19.43
2022-11-27T02:05:50.737Z,22.77
2022-11-27T02:06:52.026Z,21.33
2022-11-27T02:07:53.716Z,21.57
2022-11-27T02:08:55.947Z,20.70
2022-11-27T02:09:57.299Z,22.87
2022-11-27T02:11:02.939Z,19.37
2022-11-27T02:12:10.327Z,25.10
2022-11-27T02:13:20.535Z,19.30
2022-11-27T02:14:21.864Z,21.27
2022-11-27T02:15:23.251Z,22.27
2022-11-27T02:16:47.651Z,19.47
2022-11-27T02:17:57.045Z,20.97
2022-11-27T02:19:00.982Z,19.43
2022-11-27T02:20:20.993Z,19.17
2022-11-27T02:21:41.054Z,20.40
2022-11-27T02:22:57.484Z,21.53
2022-11-27T02:24:04.801Z,20.83
2022-11-27T02:25:28.293Z,19.30
2022-11-27T02:26:29.990Z,19.13
2022-11-27T02:27:50.329Z,20.57
2022-11-27T02:28:54.347Z,18.40
2022-11-27T02:30:01.409Z,18.13
2022-11-27T02:31:15.562Z,19.90
2022-11-27T02:32:22.580Z,22.67
2022-11-27T02:33:23.951Z,21.60
2022-11-27T02:34:25.301Z,19.23
2022-11-27T02:35:30.441Z,18.07
2022-11-27T02:36:33.593Z,18.90
2022-11-27T02:37:47.439Z,19.70
2022-11-27T02:38:53.089Z,21.67
2022-11-27T02:39:57.425Z,24.37
2022-11-27T02:41:17.581Z,18.87
2022-11-27T02:42:20.304Z,18.70
2022-11-27T02:43:23.967Z,21.50
2022-11-27T02:44:27.877Z,24.07
2022-11-27T02:45:33.273Z,20.53
2022-11-27T02:46:34.845Z,22.83
2022-11-27T02:47:36.615Z,20.57
2022-11-27T02:48:44.780Z,19.10
2022-11-27T02:49:47.038Z,18.97
2022-11-27T02:50:48.971Z,20.43
2022-11-27T02:51:57.832Z,22.37
2022-11-27T02:53:01.452Z,19.10
2022-11-27T02:54:05.387Z,19.43
2022-11-27T02:55:08.577Z,16.70
2022-11-27T02:56:12.481Z,21.27
2022-11-27T02:57:13.987Z,18.93
2022-11-27T02:58:16.708Z,21.10
2022-11-27T02:59:18.986Z,18.80
2022-11-27T03:00:20.396Z,21.43
2022-11-27T03:01:22.551Z,18.03
2022-11-27T03:02:29.151Z,18.83
2022-11-27T03:03:34.061Z,19.60
2022-11-27T03:04:40.402Z,17.63
2022-11-27T03:05:43.344Z,19.63
2022-11-27T03:06:49.239Z,20.37
2022-11-27T03:08:01.490Z,18.43
2022-11-27T03:09:05.980Z,19.30
2022-11-27T03:10:14.216Z,21.40
2022-11-27T03:11:15.976Z,27.00
2022-11-27T03:12:18.241Z,20.53
2022-11-27T03:13:19.863Z,21.70
2022-11-27T03:14:24.472Z,24.03
2022-11-27T03:15:29.002Z,20.13
2022-11-27T03:16:58.280Z,24.10
2022-11-27T03:18:03.567Z,24.97
2022-11-27T03:19:04.893Z,24.30
2022-11-27T03:20:06.342Z,22.80
2022-11-27T03:21:17.792Z,20.07
2022-11-27T03:22:19.226Z,23.10
2022-11-27T03:23:20.564Z,23.53
2022-11-27T03:24:22.051Z,20.60
2022-11-27T03:25:23.967Z,22.53
2022-11-27T03:26:25.850Z,28.03
2022-11-27T03:27:30.567Z,20.97
2022-11-27T03:28:32.489Z,21.70
2022-11-27T03:29:36.703Z,23.07
2022-11-27T03:30:39.924Z,24.63
2022-11-27T03:31:41.451Z,20.83
2022-11-27T03:32:42.979Z,24.23
2022-11-27T03:33:44.646Z,22.23
2022-11-27T03:34:46.886Z,20.70
2022-11-27T03:35:48.220Z,21.17
2022-11-27T03:36:49.590Z,22.53
2022-11-27T03:37:51.303Z,22.53
2022-11-27T03:38:53.088Z,20.03
2022-11-27T03:39:54.773Z,18.47
2022-11-27T03:41:02.910Z,18.47
2022-11-27T03:42:24.134Z,20.13
2022-11-27T03:43:27.528Z,18.67
2022-11-27T03:44:47.845Z,20.03
2022-11-27T03:45:57.612Z,20.57
2022-11-27T03:47:17.767Z,17.60
2022-11-27T03:48:21.990Z,20.10
2022-11-27T03:49:23.291Z,20.93
2022-11-27T03:50:40.129Z,20.03
2022-11-27T03:51:49.421Z,18.60
2022-11-27T03:52:56.615Z,17.63
2022-11-27T03:54:21.074Z,19.93
2022-11-27T03:55:25.547Z,20.77
2022-11-27T03:56:26.868Z,18.77
2022-11-27T03:57:54.661Z,19.43
2022-11-27T03:59:07.424Z,18.47
2022-11-27T04:00:09.303Z,18.70
2022-11-27T04:01:12.383Z,20.53
2022-11-27T04:02:14.472Z,16.30
2022-11-27T04:03:21.311Z,18.67
2022-11-27T04:04:22.661Z,19.30
2022-11-27T04:05:24.009Z,16.10
2022-11-27T04:06:25.374Z,19.27
2022-11-27T04:07:26.757Z,19.53
2022-11-27T04:08:28.249Z,17.80
2022-11-27T04:09:29.577Z,17.50
2022-11-27T04:10:31.437Z,16.40
2022-11-27T04:11:33.123Z,18.03
2022-11-27T04:12:34.475Z,20.13
2022-11-27T04:13:35.875Z,18.67
2022-11-27T04:14:37.303Z,18.93
2022-11-27T04:15:38.828Z,17.57
2022-11-27T04:16:40.249Z,18.50
2022-11-27T04:17:41.645Z,17.77
2022-11-27T04:18:42.983Z,18.10
2022-11-27T04:19:44.313Z,21.60
2022-11-27T04:20:45.662Z,18.77
2022-11-27T04:21:46.945Z,18.00
2022-11-27T04:22:48.240Z,19.90
2022-11-27T04:23:49.537Z,18.13
2022-11-27T04:24:51.039Z,19.23
2022-11-27T04:25:52.397Z,19.47
2022-11-27T04:26:53.852Z,18.40
2022-11-27T04:27:55.242Z,19.60
2022-11-27T04:28:56.632Z,20.47
2022-11-27T04:29:58.043Z,18.03
2022-11-27T04:30:59.505Z,21.07
2022-11-27T04:32:00.826Z,19.63
2022-11-27T04:33:02.457Z,18.77
2022-11-27T04:34:03.821Z,18.33
2022-11-27T04:35:05.528Z,21.40
2022-11-27T04:36:06.926Z,20.67
2022-11-27T04:37:08.286Z,21.60
2022-11-27T04:38:09.779Z,18.07
2022-11-27T04:39:12.423Z,18.70
2022-11-27T04:40:13.890Z,19.77
2022-11-27T04:41:15.260Z,16.77
2022-11-27T04:42:16.766Z,20.17
2022-11-27T04:43:18.148Z,17.60
2022-11-27T04:44:19.556Z,16.10
2022-11-27T04:45:20.945Z,17.47
2022-11-27T04:46:23.015Z,17.37
2022-11-27T04:47:24.426Z,16.80
2022-11-27T04:48:25.804Z,16.80
2022-11-27T04:49:27.140Z,18.87
2022-11-27T04:50:28.732Z,15.40
2022-11-27T04:51:30.258Z,17.30
2022-11-27T04:52:31.632Z,17.90
2022-11-27T04:53:33.078Z,16.37
2022-11-27T04:54:34.408Z,17.33
2022-11-27T04:55:35.802Z,17.30
2022-11-27T04:56:37.101Z,18.47
2022-11-27T04:57:38.393Z,17.90
2022-11-27T04:58:39.762Z,18.47
2022-11-27T04:59:41.097Z,18.23
2022-11-27T05:00:42.469Z,16.47
2022-11-27T05:01:43.895Z,18.00
2022-11-27T05:02:45.270Z,18.10
2022-11-27T05:03:47.515Z,16.63
2022-11-27T05:04:49.022Z,20.07
2022-11-27T05:05:57.300Z,17.47
2022-11-27T05:06:58.643Z,15.97
2022-11-27T05:08:00.065Z,17.20
2022-11-27T05:09:02.184Z,17.87
2022-11-27T05:10:04.301Z,17.90
2022-11-27T05:11:07.621Z,16.60
2022-11-27T05:12:09.047Z,17.47
2022-11-27T05:13:10.470Z,16.90
2022-11-27T05:14:14.995Z,17.20
2022-11-27T05:15:16.408Z,17.63
2022-11-27T05:16:17.990Z,17.27
2022-11-27T05:17:19.319Z,18.77
2022-11-27T05:18:20.829Z,17.10
2022-11-27T05:19:23.159Z,17.23
2022-11-27T05:20:24.443Z,19.70
2022-11-27T05:21:25.748Z,18.33
2022-11-27T05:22:27.112Z,18.60
2022-11-27T05:23:28.618Z,15.23
2022-11-27T05:24:30.035Z,16.07
2022-11-27T05:25:31.353Z,17.13
2022-11-27T05:26:33.271Z,16.80
2022-11-27T05:27:34.559Z,17.53
2022-11-27T05:28:35.867Z,18.00
2022-11-27T05:29:37.272Z,17.97
2022-11-27T05:30:38.618Z,17.47
2022-11-27T05:31:40.416Z,17.93
2022-11-27T05:32:41.814Z,16.63
2022-11-27T05:33:43.320Z,17.10
2022-11-27T05:34:44.695Z,16.00
2022-11-27T05:35:46.034Z,16.27
2022-11-27T05:36:47.475Z,19.10
2022-11-27T05:37:48.832Z,15.47
2022-11-27T05:38:50.280Z,20.17
2022-11-27T05:39:51.716Z,16.00
2022-11-27T05:40:53.085Z,16.33
2022-11-27T05:41:54.487Z,16.87
2022-11-27T05:42:55.782Z,16.20
2022-11-27T05:43:57.192Z,16.83
2022-11-27T05:44:58.792Z,17.53
2022-11-27T05:46:04.380Z,15.70
2022-11-27T05:47:05.784Z,17.47
2022-11-27T05:48:07.229Z,16.33
2022-11-27T05:49:09.755Z,17.27
2022-11-27T05:50:11.052Z,16.97
2022-11-27T05:51:12.534Z,17.63
2022-11-27T05:52:13.848Z,15.93
2022-11-27T05:53:15.266Z,14.83
2022-11-27T05:54:16.602Z,17.13
2022-11-27T05:55:17.950Z,18.13
2022-11-27T05:56:19.302Z,15.87
2022-11-27T05:57:20.623Z,16.23
2022-11-27T05:58:21.943Z,17.27
2022-11-27T05:59:23.269Z,15.43
2022-11-27T06:00:26.870Z,18.53
2022-11-27T06:01:28.252Z,16.67
2022-11-27T06:02:29.938Z,16.30
2022-11-27T06:03:31.444Z,16.63
2022-11-27T06:04:34.318Z,14.77
2022-11-27T06:05:38.681Z,15.33
2022-11-27T06:06:40.064Z,16.13
2022-11-27T06:07:41.442Z,16.97
2022-11-27T06:08:43.355Z,15.67
2022-11-27T06:09:44.723Z,17.57
2022-11-27T06:10:47.701Z,16.23
2022-11-27T06:11:49.127Z,17.40
2022-11-27T06:12:50.474Z,17.63
2022-11-27T06:13:51.788Z,17.03
2022-11-27T06:14:53.056Z,16.40
2022-11-27T06:15:54.384Z,16.57
2022-11-27T06:16:55.739Z,15.73
2022-11-27T06:17:57.119Z,14.63
2022-11-27T06:18:59.071Z,17.37
2022-11-27T06:20:00.437Z,16.37
2022-11-27T06:21:05.494Z,16.97
2022-11-27T06:22:06.817Z,16.20
2022-11-27T06:23:08.212Z,14.63
2022-11-27T06:24:10.667Z,15.37
2022-11-27T06:25:12.126Z,16.43
2022-11-27T06:26:13.449Z,17.03
2022-11-27T06:27:14.802Z,16.50
2022-11-27T06:28:16.108Z,16.67
2022-11-27T06:29:17.460Z,15.50
2022-11-27T06:30:18.900Z,16.33
2022-11-27T06:31:21.567Z,15.97
2022-11-27T06:32:22.988Z,15.60
2022-11-27T06:33:24.351Z,15.97
2022-11-27T06:34:25.751Z,15.83
2022-11-27T06:35:27.085Z,15.83
2022-11-27T06:36:33.037Z,17.80
2022-11-27T06:37:34.380Z,16.77
2022-11-27T06:38:36.639Z,17.07
2022-11-27T06:39:37.989Z,16.50
2022-11-27T06:40:39.285Z,17.93
2022-11-27T06:41:40.697Z,15.57
2022-11-27T06:42:42.112Z,17.13
2022-11-27T06:43:43.889Z,16.60
2022-11-27T06:44:46.333Z,20.00
2022-11-27T06:45:54.896Z,18.30
2022-11-27T06:46:56.298Z,15.17
2022-11-27T06:47:58.478Z,16.80
2022-11-27T06:49:00.539Z,16.37
2022-11-27T06:50:01.874Z,15.97
2022-11-27T06:51:04.348Z,16.60
2022-11-27T06:52:05.917Z,15.63
2022-11-27T06:53:07.215Z,15.40
2022-11-27T06:54:08.695Z,14.83
2022-11-27T06:55:10.011Z,16.30
2022-11-27T06:56:12.642Z,16.43
2022-11-27T06:57:14.510Z,15.03
2022-11-27T06:58:15.929Z,15.33
2022-11-27T06:59:17.565Z,14.63
2022-11-27T07:00:19.106Z,17.37
2022-11-27T07:01:21.323Z,14.73
2022-11-27T07:02:22.708Z,13.63
2022-11-27T07:03:24.707Z,14.73
2022-11-27T07:04:26.107Z,14.93
2022-11-27T07:05:27.411Z,17.07
2022-11-27T07:06:28.751Z,17.07
2022-11-27T07:07:30.100Z,15.90
2022-11-27T07:08:31.862Z,15.83
2022-11-27T07:09:33.175Z,14.03
2022-11-27T07:10:35.093Z,16.13
2022-11-27T07:11:38.063Z,16.50
2022-11-27T07:12:39.375Z,15.53
2022-11-27T07:13:41.040Z,16.97
2022-11-27T07:14:42.620Z,15.00
2022-11-27T07:15:44.274Z,19.43
2022-11-27T07:16:45.692Z,17.83
2022-11-27T07:17:47.109Z,15.37
2022-11-27T07:18:53.198Z,14.23
2022-11-27T07:19:54.586Z,16.00
2022-11-27T07:20:56.774Z,17.00
2022-11-27T07:21:58.261Z,16.27
2022-11-27T07:22:59.703Z,16.03
2022-11-27T07:24:01.128Z,14.63
2022-11-27T07:25:02.440Z,16.27
2022-11-27T07:26:07.691Z,15.83
2022-11-27T07:27:09.076Z,15.13
2022-11-27T07:28:13.579Z,15.80
2022-11-27T07:29:17.331Z,15.80
2022-11-27T07:30:18.703Z,14.73
2022-11-27T07:31:21.773Z,16.73
2022-11-27T07:32:23.130Z,14.87
2022-11-27T07:33:25.039Z,15.33
2022-11-27T07:34:26.396Z,15.13
2022-11-27T07:35:27.721Z,15.27
2022-11-27T07:36:30.027Z,15.93
2022-11-27T07:37:31.900Z,14.97
2022-11-27T07:38:33.636Z,15.43
2022-11-27T07:40:00.737Z,13.47
2022-11-27T07:40:59.265Z,14.27
2022-11-27T07:42:16.749Z,14.93
2022-11-27T07:43:22.315Z,14.47
2022-11-27T07:44:23.652Z,18.67
2022-11-27T07:45:25.018Z,15.93
2022-11-27T07:46:26.502Z,14.93
2022-11-27T07:47:29.160Z,15.47
2022-11-27T07:48:30.599Z,16.27
2022-11-27T07:49:31.914Z,16.47
2022-11-27T07:50:33.315Z,14.10
2022-11-27T07:51:34.627Z,13.43
2022-11-27T07:52:41.011Z,17.93
2022-11-27T07:53:43.741Z,14.77
2022-11-27T07:54:45.094Z,15.17
2022-11-27T07:55:46.386Z,14.83
2022-11-27T07:56:47.688Z,14.90
2022-11-27T07:57:52.246Z,14.80
2022-11-27T07:58:53.691Z,15.03
2022-11-27T07:59:55.049Z,15.10
2022-11-27T08:00:56.551Z,15.27
2022-11-27T08:01:58.030Z,13.70
2022-11-27T08:02:59.849Z,19.30
2022-11-27T08:04:01.192Z,16.27
2022-11-27T08:05:04.793Z,16.27
2022-11-27T08:06:14.410Z,16.50
2022-11-27T08:07:15.768Z,17.23
2022-11-27T08:08:17.098Z,14.40
2022-11-27T08:09:18.451Z,15.80
2022-11-27T08:10:19.759Z,13.67
2022-11-27T08:11:25.608Z,15.30
2022-11-27T08:12:27.011Z,16.20
2022-11-27T08:13:28.310Z,14.10
2022-11-27T08:14:29.716Z,15.63
2022-11-27T08:15:31.022Z,15.77
2022-11-27T08:16:33.267Z,14.47
2022-11-27T08:17:34.645Z,14.07
2022-11-27T08:18:35.956Z,16.70
2022-11-27T08:19:37.284Z,17.60
2022-11-27T08:20:38.716Z,16.70
2022-11-27T08:21:40.118Z,15.53
2022-11-27T08:22:41.444Z,17.17
2022-11-27T08:23:42.730Z,15.50
2022-11-27T08:24:44.038Z,19.63
2022-11-27T08:25:45.313Z,17.57
2022-11-27T08:26:46.609Z,17.57
2022-11-27T08:27:48.414Z,16.07
2022-11-27T08:28:52.040Z,15.20
2022-11-27T08:29:53.441Z,16.77
2022-11-27T08:31:01.611Z,17.53
2022-11-27T08:32:03.720Z,16.73
2022-11-27T08:33:05.179Z,20.00
2022-11-27T08:34:06.609Z,18.10
2022-11-27T08:35:08.562Z,19.17
2022-11-27T08:36:14.947Z,15.73
2022-11-27T08:37:19.418Z,21.57
2022-11-27T08:38:21.582Z,19.57
2022-11-27T08:39:22.984Z,19.90
2022-11-27T08:40:24.297Z,21.37
2022-11-27T08:41:25.645Z,21.53
2022-11-27T08:42:27.021Z,20.83
2022-11-27T08:43:28.807Z,21.47
2022-11-27T08:44:30.149Z,22.50
2022-11-27T08:45:32.868Z,21.67
2022-11-27T08:46:34.242Z,18.43
2022-11-27T08:47:35.698Z,17.27
2022-11-27T08:48:37.068Z,16.83
2022-11-27T08:49:41.493Z,19.20
2022-11-27T08:50:45.065Z,18.40
2022-11-27T08:51:46.393Z,16.87
2022-11-27T08:52:47.736Z,17.93
2022-11-27T08:53:49.039Z,15.77
2022-11-27T08:54:55.975Z,18.13
2022-11-27T08:56:05.005Z,17.23
2022-11-27T08:57:06.329Z,19.33
2022-11-27T08:58:09.001Z,17.63
2022-11-27T08:59:10.336Z,19.13
2022-11-27T09:00:12.002Z,16.73
2022-11-27T09:01:21.338Z,17.93
2022-11-27T09:02:22.719Z,18.63
2022-11-27T09:03:24.035Z,16.90
2022-11-27T09:04:25.419Z,18.93
2022-11-27T09:05:27.381Z,15.87
2022-11-27T09:06:30.406Z,18.43
2022-11-27T09:07:31.785Z,18.63
2022-11-27T09:08:33.130Z,17.30
2022-11-27T09:09:35.818Z,16.87
2022-11-27T09:10:37.134Z,18.07
2022-11-27T09:11:38.508Z,18.70
2022-11-27T09:12:43.360Z,19.43
2022-11-27T09:13:45.223Z,17.50
2022-11-27T09:14:46.735Z,17.00
2022-11-27T09:15:48.125Z,18.57
2022-11-27T09:16:49.588Z,15.67
2022-11-27T09:17:51.107Z,17.63
2022-11-27T09:18:56.558Z,16.30
2022-11-27T09:20:01.161Z,18.30
2022-11-27T09:21:07.228Z,18.53
2022-11-27T09:22:08.779Z,19.67
2022-11-27T09:23:14.271Z,17.63
2022-11-27T09:24:15.968Z,17.17
2022-11-27T09:25:17.359Z,19.07
2022-11-27T09:26:18.764Z,18.43
2022-11-27T09:27:20.098Z,17.87
2022-11-27T09:28:21.601Z,17.67
2022-11-27T09:29:23.279Z,16.53
2022-11-27T09:30:24.599Z,16.73
2022-11-27T09:31:26.386Z,18.10
2022-11-27T09:32:27.868Z,16.27
2022-11-27T09:33:30.839Z,17.20
2022-11-27T09:34:37.158Z,15.90
2022-11-27T09:35:39.274Z,15.77
2022-11-27T09:36:40.806Z,17.93
2022-11-27T09:37:42.132Z,15.47
2022-11-27T09:38:44.102Z,13.60
2022-11-27T09:39:45.442Z,15.17
2022-11-27T09:40:51.089Z,14.63
2022-11-27T09:41:57.195Z,14.27
2022-11-27T09:43:02.078Z,15.97
2022-11-27T09:44:06.489Z,16.27
2022-11-27T09:45:11.791Z,14.17
2022-11-27T09:46:18.970Z,16.40
2022-11-27T09:47:36.139Z,13.40
2022-11-27T09:48:42.151Z,13.10
2022-11-27T09:49:57.036Z,14.07
2022-11-27T09:51:00.281Z,15.27
2022-11-27T09:52:10.919Z,14.07
2022-11-27T09:53:12.293Z,15.67
2022-11-27T09:54:22.295Z,14.73
2022-11-27T09:55:26.164Z,12.43
2022-11-27T09:56:29.125Z,14.33
2022-11-27T09:57:35.937Z,13.00
2022-11-27T09:58:41.547Z,14.67
2022-11-27T09:59:49.094Z,13.10
2022-11-27T10:00:50.411Z,12.37
2022-11-27T10:01:51.812Z,13.93
2022-11-27T10:02:53.901Z,13.97
2022-11-27T10:03:56.021Z,13.10
2022-11-27T10:05:13.890Z,13.33
2022-11-27T10:06:30.950Z,15.23
2022-11-27T10:07:48.836Z,16.50
2022-11-27T10:08:57.149Z,14.27
2022-11-27T10:10:01.493Z,11.87
2022-11-27T10:11:14.103Z,13.97
2022-11-27T10:12:34.241Z,11.73
2022-11-27T10:13:41.729Z,10.10
2022-11-27T10:14:43.333Z,11.97
2022-11-27T10:15:50.905Z,13.07
2022-11-27T10:17:13.555Z,9.57
2022-11-27T10:18:17.665Z,12.00
2022-11-27T10:19:27.115Z,17.57
2022-11-27T10:20:44.671Z,18.23
2022-11-27T10:21:48.713Z,13.80
2022-11-27T10:23:12.306Z,13.23
2022-11-27T10:24:36.474Z,10.20
2022-11-27T10:25:51.832Z,10.77
2022-11-27T10:26:54.105Z,13.73
2022-11-27T10:28:10.942Z,13.63
2022-11-27T10:29:25.068Z,10.97
2022-11-27T10:30:28.281Z,10.30
2022-11-27T10:31:35.268Z,8.53
2022-11-27T10:34:02.816Z,10.53
2022-11-27T10:35:09.314Z,13.73
2022-11-27T10:36:14.324Z,11.50
2022-11-27T10:37:15.647Z,8.77
2022-11-27T10:38:24.064Z,7.27
2022-11-27T10:39:30.591Z,9.23
2022-11-27T10:40:50.853Z,8.73
2022-11-27T10:41:57.046Z,9.90
2022-11-27T10:43:10.710Z,7.60
2022-11-27T10:44:29.805Z,10.60
2022-11-27T10:45:40.328Z,7.33
2022-11-27T10:46:41.753Z,8.97
2022-11-27T10:47:43.909Z,10.03
2022-11-27T10:48:45.402Z,7.73
2022-11-27T10:49:46.975Z,7.83
2022-11-27T10:50:48.774Z,6.03
2022-11-27T10:51:50.641Z,8.83
2022-11-27T10:53:00.505Z,9.27
2022-11-27T10:54:03.573Z,5.80
2022-11-27T10:55:12.197Z,7.07
2022-11-27T10:56:15.118Z,7.90
2022-11-27T10:57:34.897Z,8.23
2022-11-27T10:58:54.910Z,8.27
2022-11-27T10:59:56.230Z,8.03
2022-11-27T11:01:04.694Z,8.83
2022-11-27T11:02:08.536Z,8.87
2022-11-27T11:03:15.732Z,9.37
2022-11-27T11:04:37.577Z,9.33
2022-11-27T11:06:19.326Z,8.00
2022-11-27T11:07:33.892Z,8.17
2022-11-27T11:08:36.930Z,8.00
2022-11-27T11:09:46.076Z,6.27
2022-11-27T11:10:51.619Z,7.83
2022-11-27T11:11:53.204Z,7.73
2022-11-27T11:13:04.587Z,5.23
2022-11-27T11:14:15.203Z,6.60
2022-11-27T11:15:16.548Z,6.03
2022-11-27T11:16:24.323Z,7.30
2022-11-27T11:17:27.170Z,6.97
2022-11-27T11:18:32.839Z,5.37
2022-11-27T11:19:36.818Z,6.60
2022-11-27T11:20:38.285Z,6.03
2022-11-27T11:21:40.850Z,7.43
2022-11-27T11:22:45.429Z,5.83
2022-11-27T11:23:52.554Z,6.80
2022-11-27T11:24:54.149Z,7.37
2022-11-27T11:25:57.002Z,5.97
2022-11-27T11:26:59.700Z,6.80
2022-11-27T11:28:01.034Z,6.63
2022-11-27T11:29:04.077Z,6.70
2022-11-27T11:30:05.820Z,7.10
2022-11-27T11:31:09.634Z,8.13
2022-11-27T11:32:13.164Z,5.77
2022-11-27T11:33:14.648Z,7.47
2022-11-27T11:34:28.912Z,7.63
2022-11-27T11:35:34.894Z,6.53
2022-11-27T11:36:36.428Z,6.20
2022-11-27T11:37:45.040Z,6.40
2022-11-27T11:38:47.259Z,6.40
2022-11-27T11:39:57.151Z,5.93
2022-11-27T11:41:03.691Z,7.00
2022-11-27T11:42:18.450Z,7.97
2022-11-27T11:43:24.177Z,9.97
2022-11-27T11:44:35.381Z,6.63
2022-11-27T11:45:44.718Z,7.63
2022-11-27T11:46:50.755Z,6.27
2022-11-27T11:47:53.196Z,8.37
2022-11-27T11:48:55.550Z,5.43
2022-11-27T11:49:57.489Z,6.50
2022-11-27T11:51:01.566Z,6.20
2022-11-27T11:52:11.968Z,8.20
2022-11-27T11:53:32.038Z,6.40
2022-11-27T11:54:36.366Z,5.53
2022-11-27T11:56:00.699Z,4.87
2022-11-27T11:57:03.222Z,6.77
2022-11-27T11:58:10.070Z,10.33
2022-11-27T11:59:31.558Z,12.27
2022-11-27T12:01:04.436Z,8.53
2022-11-27T12:02:25.590Z,12.10
2022-11-27T12:03:33.074Z,12.20
2022-11-27T12:04:41.738Z,13.03
2022-11-27T12:06:01.926Z,10.37
2022-11-27T12:07:11.185Z,6.43
2022-11-27T12:08:15.397Z,5.83
2022-11-27T12:09:20.763Z,6.27
2022-11-27T12:10:30.187Z,7.10
2022-11-27T12:11:34.694Z,6.27
2022-11-27T12:12:41.782Z,5.80
2022-11-27T12:14:02.055Z,5.03
2022-11-27T12:15:09.347Z,4.60
2022-11-27T12:16:22.959Z,5.03
2022-11-27T12:17:24.338Z,8.57
2022-11-27T12:18:44.126Z,5.87
2022-11-27T12:19:48.530Z,4.73
2022-11-27T12:20:52.981Z,4.27
2022-11-27T12:22:15.337Z,5.03
2022-11-27T12:23:16.685Z,5.83
2022-11-27T12:24:26.886Z,6.03
2022-11-27T12:25:30.271Z,4.87
2022-11-27T12:26:47.142Z,5.00
2022-11-27T12:28:03.762Z,6.00
2022-11-27T12:29:28.434Z,5.10
2022-11-27T12:30:44.352Z,3.77
2022-11-27T12:31:56.236Z,6.40
2022-11-27T12:32:57.705Z,6.57
2022-11-27T12:34:02.109Z,6.13
2022-11-27T12:35:18.915Z,5.90
2022-11-27T12:36:23.099Z,6.50
2022-11-27T12:37:24.389Z,3.60
2022-11-27T12:38:44.614Z,4.27
2022-11-27T12:39:58.190Z,3.80
2022-11-27T12:41:05.678Z,4.23
2022-11-27T12:42:20.452Z,3.87
2022-11-27T12:43:26.900Z,4.53
2022-11-27T12:44:47.392Z,4.87
2022-11-27T12:45:51.890Z,5.80
2022-11-27T12:46:58.518Z,4.10
2022-11-27T12:48:05.653Z,4.60
2022-11-27T12:49:22.110Z,4.73
2022-11-27T12:50:44.151Z,4.23
2022-11-27T12:51:54.647Z,5.47
2022-11-27T12:53:18.897Z,5.23
2022-11-27T12:54:40.582Z,4.07
2022-11-27T12:55:44.975Z,5.27
2022-11-27T12:56:52.009Z,3.13
2022-11-27T12:58:03.194Z,3.67
2022-11-27T12:59:18.645Z,5.23
2022-11-27T13:00:21.367Z,4.63
2022-11-27T13:01:31.313Z,6.53
2022-11-27T13:02:42.135Z,5.93
2022-11-27T13:03:58.991Z,4.83
2022-11-27T13:05:02.525Z,5.00
2022-11-27T13:06:06.327Z,4.33
2022-11-27T13:07:15.012Z,4.83
2022-11-27T13:08:19.671Z,3.57
2022-11-27T13:09:25.841Z,3.53
2022-11-27T13:10:33.921Z,3.60
2022-11-27T13:11:38.937Z,5.37
2022-11-27T13:12:44.468Z,6.93
2022-11-27T13:13:47.929Z,5.43
2022-11-27T13:14:55.057Z,7.87
2022-11-27T13:16:03.677Z,5.80
2022-11-27T13:17:08.936Z,4.70
2022-11-27T13:18:29.070Z,3.63
2022-11-27T13:19:32.770Z,4.87
2022-11-27T13:20:37.233Z,5.10
2022-11-27T13:21:39.409Z,5.40
2022-11-27T13:22:41.124Z,5.47
2022-11-27T13:23:42.489Z,4.70
2022-11-27T13:24:44.129Z,6.47
2022-11-27T13:25:49.560Z,4.80
2022-11-27T13:27:03.092Z,5.80
2022-11-27T13:28:05.497Z,4.80
2022-11-27T13:29:13.447Z,5.73
2022-11-27T13:30:20.203Z,7.27
2022-11-27T13:31:25.971Z,6.87
2022-11-27T13:32:32.956Z,5.97
2022-11-27T13:33:34.865Z,7.37
2022-11-27T13:34:44.581Z,4.83
2022-11-27T13:35:45.994Z,7.00
2022-11-27T13:36:54.922Z,6.57
2022-11-27T13:37:58.977Z,6.40
2022-11-27T13:39:01.222Z,5.17
2022-11-27T13:40:05.771Z,6.17
2022-11-27T13:41:08.168Z,5.97
2022-11-27T13:42:12.598Z,6.43
2022-11-27T13:43:28.810Z,7.33
2022-11-27T13:44:30.460Z,10.87
2022-11-27T13:45:34.003Z,9.87
2022-11-27T13:46:44.097Z,9.80
2022-11-27T13:47:45.614Z,10.30
2022-11-27T13:49:07.186Z,9.33
2022-11-27T13:50:10.311Z,8.73
2022-11-27T13:51:21.533Z,10.30
2022-11-27T13:52:22.944Z,12.00
2022-11-27T13:53:33.577Z,10.40
2022-11-27T13:54:34.965Z,9.80
2022-11-27T13:55:37.905Z,11.40
2022-11-27T13:56:39.542Z,12.30
2022-11-27T13:57:51.055Z,11.33